sensor_id;sensor_type;location;lat;lon;timestamp;noise_LAeq;noise_LA_min;noise_LA_max;noise_LA01;noise_LA95
49732;Laerm;43666;51.442;6.778;2024-03-22T00:00:45;37.05;32.35;39.81;;
49732;Laerm;43666;51.442;6.778;2024-03-22T00:03:11;37.12;30.89;40.23;;
49732;Laerm;43666;51.442;6.778;2024-03-22T00:05:37;37.15;31.68;40.03;;
49732;Laerm;43666;51.442;6.778;2024-03-22T00:08:03;37.26;30.89;40.03;;
49732;Laerm;43666;51.442;6.778;2024-03-22T00:10:30;37.16;31.68;40.23;;
49732;Laerm;43666;51.442;6.778;2024-03-22T00:12:56;37.16;31.68;40.23;;
49732;Laerm;43666;51.442;6.778;2024-03-22T00:15:21;37.21;32.35;40.23;;
49732;Laerm;43666;51.442;6.778;2024-03-22T00:17:48;37.15;30.89;40.03;;
49732;Laerm;43666;51.442;6.778;2024-03-22T00:20:14;37.15;32.35;40.43;;
49732;Laerm;43666;51.442;6.778;2024-03-22T00:22:40;37.26;32.35;40.53;;
49732;Laerm;43666;51.442;6.778;2024-03-22T00:25:06;37.37;32.93;40.80;;
49732;Laerm;43666;51.442;6.778;2024-03-22T00:27:32;37.37;31.68;40.80;;
49732;Laerm;43666;51.442;6.778;2024-03-22T00:29:59;37.44;31.68;40.98;;
49732;Laerm;43666;51.442;6.778;2024-03-22T00:32:25;37.50;30.89;40.43;;
49732;Laerm;43666;51.442;6.778;2024-03-22T00:34:51;37.60;32.93;40.80;;
49732;Laerm;43666;51.442;6.778;2024-03-22T00:37:17;37.42;32.35;40.33;;
49732;Laerm;43666;51.442;6.778;2024-03-22T00:39:43;37.40;29.92;40.98;;
49732;Laerm;43666;51.442;6.778;2024-03-22T00:42:09;37.30;30.89;40.43;;
49732;Laerm;43666;51.442;6.778;2024-03-22T00:44:35;37.47;31.68;40.43;;
49732;Laerm;43666;51.442;6.778;2024-03-22T00:47:01;37.38;31.68;40.80;;
49732;Laerm;43666;51.442;6.778;2024-03-22T00:49:29;37.56;31.68;41.06;;
49732;Laerm;43666;51.442;6.778;2024-03-22T00:51:55;37.37;31.68;40.53;;
49732;Laerm;43666;51.442;6.778;2024-03-22T00:54:22;37.52;32.35;41.55;;
49732;Laerm;43666;51.442;6.778;2024-03-22T00:56:47;37.44;31.68;40.80;;
49732;Laerm;43666;51.442;6.778;2024-03-22T00:59:13;37.36;31.68;41.06;;
49732;Laerm;43666;51.442;6.778;2024-03-22T01:01:39;37.39;31.68;40.71;;
49732;Laerm;43666;51.442;6.778;2024-03-22T01:04:04;37.55;32.35;41.33;;
49732;Laerm;43666;51.442;6.778;2024-03-22T01:06:30;37.35;32.93;45.91;;
49732;Laerm;43666;51.442;6.778;2024-03-22T01:08:56;37.42;32.35;40.62;;
49732;Laerm;43666;51.442;6.778;2024-03-22T01:11:22;37.49;32.35;41.14;;
49732;Laerm;43666;51.442;6.778;2024-03-22T01:13:48;37.47;29.92;40.80;;
49732;Laerm;43666;51.442;6.778;2024-03-22T01:16:14;37.54;31.68;41.06;;
49732;Laerm;43666;51.442;6.778;2024-03-22T01:18:40;37.51;32.35;41.22;;
49732;Laerm;43666;51.442;6.778;2024-03-22T01:21:06;37.46;31.68;41.06;;
49732;Laerm;43666;51.442;6.778;2024-03-22T01:23:32;37.20;31.68;40.53;;
49732;Laerm;43666;51.442;6.778;2024-03-22T01:25:58;37.33;32.35;40.71;;
49732;Laerm;43666;51.442;6.778;2024-03-22T01:28:24;37.21;31.68;40.23;;
49732;Laerm;43666;51.442;6.778;2024-03-22T01:30:50;37.16;32.35;40.53;;
49732;Laerm;43666;51.442;6.778;2024-03-22T01:33:16;37.26;31.68;40.13;;
49732;Laerm;43666;51.442;6.778;2024-03-22T01:35:42;37.13;32.35;40.62;;
49732;Laerm;43666;51.442;6.778;2024-03-22T01:38:10;37.19;31.68;40.53;;
49732;Laerm;43666;51.442;6.778;2024-03-22T01:40:36;37.31;31.68;40.33;;
49732;Laerm;43666;51.442;6.778;2024-03-22T01:43:02;37.27;32.93;40.53;;
49732;Laerm;43666;51.442;6.778;2024-03-22T01:45:31;37.22;31.68;40.71;;
49732;Laerm;43666;51.442;6.778;2024-03-22T01:47:57;37.10;31.68;41.06;;
49732;Laerm;43666;51.442;6.778;2024-03-22T01:50:23;37.12;31.68;40.43;;
49732;Laerm;43666;51.442;6.778;2024-03-22T01:52:48;37.11;30.89;40.13;;
49732;Laerm;43666;51.442;6.778;2024-03-22T01:55:14;37.18;32.35;40.13;;
49732;Laerm;43666;51.442;6.778;2024-03-22T01:57:40;37.21;31.68;40.43;;
49732;Laerm;43666;51.442;6.778;2024-03-22T02:00:06;37.17;32.35;40.23;;
49732;Laerm;43666;51.442;6.778;2024-03-22T02:02:34;37.24;31.68;40.98;;
49732;Laerm;43666;51.442;6.778;2024-03-22T02:05:13;37.22;30.89;40.23;;
49732;Laerm;43666;51.442;6.778;2024-03-22T02:07:40;36.92;30.89;39.70;;
49732;Laerm;43666;51.442;6.778;2024-03-22T02:10:06;37.00;30.89;40.03;;
49732;Laerm;43666;51.442;6.778;2024-03-22T02:12:33;36.98;30.89;39.81;;
49732;Laerm;43666;51.442;6.778;2024-03-22T02:15:00;37.02;32.35;39.81;;
49732;Laerm;43666;51.442;6.778;2024-03-22T02:17:27;36.99;30.89;40.13;;
49732;Laerm;43666;51.442;6.778;2024-03-22T02:19:53;37.00;32.35;39.70;;
49732;Laerm;43666;51.442;6.778;2024-03-22T02:22:18;37.00;31.68;40.33;;
49732;Laerm;43666;51.442;6.778;2024-03-22T02:24:44;37.00;32.35;40.03;;
49732;Laerm;43666;51.442;6.778;2024-03-22T02:27:10;37.01;31.68;39.81;;
49732;Laerm;43666;51.442;6.778;2024-03-22T02:29:36;37.00;31.68;39.89;;
49732;Laerm;43666;51.442;6.778;2024-03-22T02:32:02;37.00;31.68;39.92;;
49732;Laerm;43666;51.442;6.778;2024-03-22T02:34:29;36.94;32.35;39.70;;
49732;Laerm;43666;51.442;6.778;2024-03-22T02:36:55;37.07;32.35;46.57;;
49732;Laerm;43666;51.442;6.778;2024-03-22T02:39:21;37.04;31.68;39.70;;
49732;Laerm;43666;51.442;6.778;2024-03-22T02:41:46;37.11;31.68;39.81;;
49732;Laerm;43666;51.442;6.778;2024-03-22T02:44:12;37.11;29.92;40.33;;
49732;Laerm;43666;51.442;6.778;2024-03-22T02:46:38;37.11;30.89;40.23;;
49732;Laerm;43666;51.442;6.778;2024-03-22T02:49:04;37.16;32.35;40.23;;
49732;Laerm;43666;51.442;6.778;2024-03-22T02:51:29;37.16;32.35;40.23;;
49732;Laerm;43666;51.442;6.778;2024-03-22T02:53:55;37.09;30.89;39.92;;
49732;Laerm;43666;51.442;6.778;2024-03-22T02:56:21;37.07;30.89;40.62;;
49732;Laerm;43666;51.442;6.778;2024-03-22T02:58:48;37.13;31.68;40.33;;
49732;Laerm;43666;51.442;6.778;2024-03-22T03:01:14;37.08;30.89;40.33;;
49732;Laerm;43666;51.442;6.778;2024-03-22T03:03:40;37.02;30.89;40.89;;
49732;Laerm;43666;51.442;6.778;2024-03-22T03:06:06;36.99;30.89;39.99;;
49732;Laerm;43666;51.442;6.778;2024-03-22T03:08:32;37.03;32.35;39.70;;
49732;Laerm;43666;51.442;6.778;2024-03-22T03:10:59;36.99;31.68;40.62;;
49732;Laerm;43666;51.442;6.778;2024-03-22T03:13:25;36.98;30.89;39.70;;
49732;Laerm;43666;51.442;6.778;2024-03-22T03:15:51;37.03;31.68;39.92;;
49732;Laerm;43666;51.442;6.778;2024-03-22T03:18:17;37.01;31.68;40.03;;
49732;Laerm;43666;51.442;6.778;2024-03-22T03:20:43;37.05;28.67;40.13;;
49732;Laerm;43666;51.442;6.778;2024-03-22T03:23:09;37.05;30.89;40.13;;
49732;Laerm;43666;51.442;6.778;2024-03-22T03:25:35;37.17;32.35;40.13;;
49732;Laerm;43666;51.442;6.778;2024-03-22T03:28:01;37.14;30.89;40.03;;
49732;Laerm;43666;51.442;6.778;2024-03-22T03:30:27;37.16;31.33;40.71;;
49732;Laerm;43666;51.442;6.778;2024-03-22T03:32:52;37.12;31.68;40.23;;
49732;Laerm;43666;51.442;6.778;2024-03-22T03:35:18;36.99;30.89;40.23;;
49732;Laerm;43666;51.442;6.778;2024-03-22T03:37:44;37.05;32.35;51.29;;
49732;Laerm;43666;51.442;6.778;2024-03-22T03:40:10;37.12;32.35;40.53;;
49732;Laerm;43666;51.442;6.778;2024-03-22T03:42:35;37.36;31.68;40.62;;
49732;Laerm;43666;51.442;6.778;2024-03-22T03:45:01;37.20;31.68;40.71;;
49732;Laerm;43666;51.442;6.778;2024-03-22T03:47:27;36.97;30.89;40.03;;
49732;Laerm;43666;51.442;6.778;2024-03-22T03:49:53;37.01;28.67;40.13;;
49732;Laerm;43666;51.442;6.778;2024-03-22T03:52:18;36.95;29.92;39.81;;
49732;Laerm;43666;51.442;6.778;2024-03-22T03:54:47;37.02;31.68;39.81;;
49732;Laerm;43666;51.442;6.778;2024-03-22T03:57:12;37.05;30.89;40.03;;
49732;Laerm;43666;51.442;6.778;2024-03-22T03:59:39;37.19;30.89;58.63;;
49732;Laerm;43666;51.442;6.778;2024-03-22T04:02:05;37.18;30.89;40.23;;
49732;Laerm;43666;51.442;6.778;2024-03-22T04:04:30;37.29;30.89;40.43;;
49732;Laerm;43666;51.442;6.778;2024-03-22T04:06:56;37.05;32.35;40.13;;
49732;Laerm;43666;51.442;6.778;2024-03-22T04:09:22;37.13;31.68;42.41;;
49732;Laerm;43666;51.442;6.778;2024-03-22T04:11:48;37.24;32.35;40.62;;
49732;Laerm;43666;51.442;6.778;2024-03-22T04:14:13;37.10;31.68;40.03;;
49732;Laerm;43666;51.442;6.778;2024-03-22T04:16:39;37.09;31.68;40.33;;
49732;Laerm;43666;51.442;6.778;2024-03-22T04:19:05;37.16;30.89;40.62;;
49732;Laerm;43666;51.442;6.778;2024-03-22T04:21:31;37.02;30.89;40.62;;
49732;Laerm;43666;51.442;6.778;2024-03-22T04:23:57;37.04;30.89;40.23;;
49732;Laerm;43666;51.442;6.778;2024-03-22T04:26:22;37.01;29.92;39.92;;
49732;Laerm;43666;51.442;6.778;2024-03-22T04:28:49;37.23;32.35;40.13;;
49732;Laerm;43666;51.442;6.778;2024-03-22T04:31:18;37.11;31.68;40.23;;
49732;Laerm;43666;51.442;6.778;2024-03-22T04:33:44;36.86;29.92;40.13;;
49732;Laerm;43666;51.442;6.778;2024-03-22T04:36:10;36.83;30.89;40.13;;
49732;Laerm;43666;51.442;6.778;2024-03-22T04:38:36;37.14;30.89;40.08;;
49732;Laerm;43666;51.442;6.778;2024-03-22T04:41:02;37.16;31.68;40.33;;
49732;Laerm;43666;51.442;6.778;2024-03-22T04:43:28;37.16;31.68;40.23;;
49732;Laerm;43666;51.442;6.778;2024-03-22T04:45:54;37.20;31.68;40.33;;
49732;Laerm;43666;51.442;6.778;2024-03-22T04:48:20;37.36;30.89;40.53;;
49732;Laerm;43666;51.442;6.778;2024-03-22T04:50:47;37.25;29.92;40.43;;
49732;Laerm;43666;51.442;6.778;2024-03-22T04:53:15;37.18;31.68;40.43;;
49732;Laerm;43666;51.442;6.778;2024-03-22T04:55:42;37.14;32.35;40.23;;
49732;Laerm;43666;51.442;6.778;2024-03-22T04:58:13;37.21;30.89;40.27;;
49732;Laerm;43666;51.442;6.778;2024-03-22T05:00:39;37.07;31.68;40.53;;
49732;Laerm;43666;51.442;6.778;2024-03-22T05:03:05;37.07;26.91;40.23;;
49732;Laerm;43666;51.442;6.778;2024-03-22T05:05:31;37.18;29.92;41.06;;
49732;Laerm;43666;51.442;6.778;2024-03-22T05:07:57;37.11;26.91;40.71;;
49732;Laerm;43666;51.442;6.778;2024-03-22T05:10:23;37.20;31.68;40.71;;
49732;Laerm;43666;51.442;6.778;2024-03-22T05:12:49;37.28;29.92;40.53;;
49732;Laerm;43666;51.442;6.778;2024-03-22T05:15:15;37.17;30.89;40.53;;
49732;Laerm;43666;51.442;6.778;2024-03-22T05:17:41;37.23;32.35;40.43;;
49732;Laerm;43666;51.442;6.778;2024-03-22T05:20:09;37.20;31.68;40.43;;
49732;Laerm;43666;51.442;6.778;2024-03-22T05:22:37;37.03;30.89;40.23;;
49732;Laerm;43666;51.442;6.778;2024-03-22T05:25:03;36.99;30.89;40.13;;
49732;Laerm;43666;51.442;6.778;2024-03-22T05:27:30;36.98;31.68;39.92;;
49732;Laerm;43666;51.442;6.778;2024-03-22T05:29:56;36.93;31.68;40.23;;
49732;Laerm;43666;51.442;6.778;2024-03-22T05:32:22;36.97;31.68;40.13;;
49732;Laerm;43666;51.442;6.778;2024-03-22T05:34:47;36.94;31.68;39.92;;
49732;Laerm;43666;51.442;6.778;2024-03-22T05:37:16;36.89;29.92;39.70;;
49732;Laerm;43666;51.442;6.778;2024-03-22T05:39:42;36.89;30.89;40.03;;
49732;Laerm;43666;51.442;6.778;2024-03-22T05:42:08;36.92;30.89;40.23;;
49732;Laerm;43666;51.442;6.778;2024-03-22T05:44:34;36.93;29.92;39.70;;
49732;Laerm;43666;51.442;6.778;2024-03-22T05:47:00;37.06;30.89;40.27;;
49732;Laerm;43666;51.442;6.778;2024-03-22T05:49:26;37.07;29.92;40.23;;
49732;Laerm;43666;51.442;6.778;2024-03-22T05:51:52;37.13;30.89;40.23;;
49732;Laerm;43666;51.442;6.778;2024-03-22T05:54:18;37.13;29.92;40.43;;
49732;Laerm;43666;51.442;6.778;2024-03-22T05:56:44;37.03;31.68;40.23;;
49732;Laerm;43666;51.442;6.778;2024-03-22T05:59:09;37.05;31.68;40.13;;
49732;Laerm;43666;51.442;6.778;2024-03-22T06:01:36;37.07;30.89;40.13;;
49732;Laerm;43666;51.442;6.778;2024-03-22T06:04:01;37.11;31.68;39.92;;
49732;Laerm;43666;51.442;6.778;2024-03-22T06:06:27;37.12;32.35;40.36;;
49732;Laerm;43666;51.442;6.778;2024-03-22T06:08:53;37.10;28.67;40.33;;
49732;Laerm;43666;51.442;6.778;2024-03-22T06:11:20;37.09;31.68;39.81;;
49732;Laerm;43666;51.442;6.778;2024-03-22T06:13:47;37.06;31.68;40.33;;
49732;Laerm;43666;51.442;6.778;2024-03-22T06:16:13;37.04;30.89;39.92;;
49732;Laerm;43666;51.442;6.778;2024-03-22T06:18:39;37.06;32.35;40.23;;
49732;Laerm;43666;51.442;6.778;2024-03-22T06:21:05;37.21;32.35;40.43;;
49732;Laerm;43666;51.442;6.778;2024-03-22T06:23:31;36.89;30.89;39.70;;
49732;Laerm;43666;51.442;6.778;2024-03-22T06:25:57;37.08;31.68;40.23;;
49732;Laerm;43666;51.442;6.778;2024-03-22T06:28:23;37.11;30.89;40.53;;
49732;Laerm;43666;51.442;6.778;2024-03-22T06:30:49;37.09;31.68;39.92;;
49732;Laerm;43666;51.442;6.778;2024-03-22T06:33:15;37.09;28.67;39.81;;
49732;Laerm;43666;51.442;6.778;2024-03-22T06:35:41;37.03;31.68;40.33;;
49732;Laerm;43666;51.442;6.778;2024-03-22T06:38:10;37.06;32.35;39.58;;
49732;Laerm;43666;51.442;6.778;2024-03-22T06:40:36;36.96;32.35;39.70;;
49732;Laerm;43666;51.442;6.778;2024-03-22T06:43:01;37.00;31.68;40.03;;
49732;Laerm;43666;51.442;6.778;2024-03-22T06:45:27;37.02;30.54;39.92;;
49732;Laerm;43666;51.442;6.778;2024-03-22T06:47:53;37.12;31.68;40.03;;
49732;Laerm;43666;51.442;6.778;2024-03-22T06:50:18;37.00;30.89;40.62;;
49732;Laerm;43666;51.442;6.778;2024-03-22T06:52:54;37.03;29.92;40.03;;
49732;Laerm;43666;51.442;6.778;2024-03-22T06:55:21;37.13;30.89;39.81;;
49732;Laerm;43666;51.442;6.778;2024-03-22T06:57:48;37.13;32.35;39.70;;
49732;Laerm;43666;51.442;6.778;2024-03-22T07:00:15;37.18;31.68;40.33;;
49732;Laerm;43666;51.442;6.778;2024-03-22T07:02:41;37.23;30.89;40.13;;
49732;Laerm;43666;51.442;6.778;2024-03-22T07:05:07;37.21;31.68;39.81;;
49732;Laerm;43666;51.442;6.778;2024-03-22T07:07:33;37.29;32.35;40.13;;
49732;Laerm;43666;51.442;6.778;2024-03-22T07:10:00;37.21;32.35;40.18;;
49732;Laerm;43666;51.442;6.778;2024-03-22T07:12:26;37.19;32.35;40.03;;
49732;Laerm;43666;51.442;6.778;2024-03-22T07:14:52;37.15;31.68;39.81;;
49732;Laerm;43666;51.442;6.778;2024-03-22T07:17:17;37.18;31.68;40.13;;
49732;Laerm;43666;51.442;6.778;2024-03-22T07:19:45;37.18;32.93;39.92;;
49732;Laerm;43666;51.442;6.778;2024-03-22T07:22:11;37.26;31.68;40.53;;
49732;Laerm;43666;51.442;6.778;2024-03-22T07:24:37;37.34;32.35;40.33;;
49732;Laerm;43666;51.442;6.778;2024-03-22T07:27:03;37.30;32.93;40.23;;
49732;Laerm;43666;51.442;6.778;2024-03-22T07:29:32;37.30;32.35;40.13;;
49732;Laerm;43666;51.442;6.778;2024-03-22T07:31:58;37.32;30.89;40.53;;
49732;Laerm;43666;51.442;6.778;2024-03-22T07:34:24;37.41;31.68;40.13;;
49732;Laerm;43666;51.442;6.778;2024-03-22T07:36:53;37.39;32.93;40.23;;
49732;Laerm;43666;51.442;6.778;2024-03-22T07:39:21;37.39;30.89;40.71;;
49732;Laerm;43666;51.442;6.778;2024-03-22T07:41:49;37.34;31.68;40.33;;
49732;Laerm;43666;51.442;6.778;2024-03-22T07:44:14;37.33;29.92;40.43;;
49732;Laerm;43666;51.442;6.778;2024-03-22T07:46:43;37.33;32.93;40.33;;
49732;Laerm;43666;51.442;6.778;2024-03-22T07:49:10;37.34;33.44;40.03;;
49732;Laerm;43666;51.442;6.778;2024-03-22T07:51:35;37.29;32.35;39.92;;
49732;Laerm;43666;51.442;6.778;2024-03-22T07:54:01;37.33;33.44;40.62;;
49732;Laerm;43666;51.442;6.778;2024-03-22T07:56:28;37.34;31.68;40.03;;
49732;Laerm;43666;51.442;6.778;2024-03-22T07:58:53;37.31;32.35;40.03;;
49732;Laerm;43666;51.442;6.778;2024-03-22T08:01:19;37.27;32.93;40.53;;
49732;Laerm;43666;51.442;6.778;2024-03-22T08:03:46;37.31;32.93;40.03;;
49732;Laerm;43666;51.442;6.778;2024-03-22T08:06:11;37.29;33.09;39.92;;
49732;Laerm;43666;51.442;6.778;2024-03-22T08:08:37;37.28;33.90;39.92;;
49732;Laerm;43666;51.442;6.778;2024-03-22T08:11:03;37.27;31.68;40.23;;
49732;Laerm;43666;51.442;6.778;2024-03-22T08:13:29;37.24;32.35;39.81;;
49732;Laerm;43666;51.442;6.778;2024-03-22T08:15:55;37.22;32.93;39.81;;
49732;Laerm;43666;51.442;6.778;2024-03-22T08:18:20;37.25;32.93;40.13;;
49732;Laerm;43666;51.442;6.778;2024-03-22T08:20:46;37.29;32.93;40.03;;
49732;Laerm;43666;51.442;6.778;2024-03-22T08:23:12;37.31;32.93;40.03;;
49732;Laerm;43666;51.442;6.778;2024-03-22T08:25:38;37.33;32.35;40.43;;
49732;Laerm;43666;51.442;6.778;2024-03-22T08:28:04;37.34;33.44;39.81;;
49732;Laerm;43666;51.442;6.778;2024-03-22T08:30:30;37.33;32.35;39.81;;
49732;Laerm;43666;51.442;6.778;2024-03-22T08:32:56;37.39;32.93;39.92;;
49732;Laerm;43666;51.442;6.778;2024-03-22T08:35:21;37.37;33.90;40.23;;
49732;Laerm;43666;51.442;6.778;2024-03-22T08:37:47;37.41;33.90;40.13;;
49732;Laerm;43666;51.442;6.778;2024-03-22T08:40:13;37.41;33.44;40.03;;
49732;Laerm;43666;51.442;6.778;2024-03-22T08:42:39;37.42;33.44;40.13;;
49732;Laerm;43666;51.442;6.778;2024-03-22T08:45:05;37.43;33.90;39.81;;
49732;Laerm;43666;51.442;6.778;2024-03-22T08:47:31;37.42;33.44;40.13;;
49732;Laerm;43666;51.442;6.778;2024-03-22T08:49:59;37.48;32.93;53.78;;
49732;Laerm;43666;51.442;6.778;2024-03-22T08:52:25;37.42;33.90;40.53;;
49732;Laerm;43666;51.442;6.778;2024-03-22T08:54:52;37.45;33.44;40.62;;
49732;Laerm;43666;51.442;6.778;2024-03-22T08:57:17;37.46;32.35;40.23;;
49732;Laerm;43666;51.442;6.778;2024-03-22T08:59:43;37.43;32.93;40.23;;
49732;Laerm;43666;51.442;6.778;2024-03-22T09:02:09;37.45;32.93;40.03;;
49732;Laerm;43666;51.442;6.778;2024-03-22T09:04:35;37.47;34.31;40.43;;
49732;Laerm;43666;51.442;6.778;2024-03-22T09:07:00;37.52;33.90;40.43;;
49732;Laerm;43666;51.442;6.778;2024-03-22T09:09:29;37.54;33.90;39.81;;
49732;Laerm;43666;51.442;6.778;2024-03-22T09:11:55;37.55;33.90;40.03;;
49732;Laerm;43666;51.442;6.778;2024-03-22T09:14:21;37.62;33.90;40.13;;
49732;Laerm;43666;51.442;6.778;2024-03-22T09:16:46;37.66;34.31;40.62;;
49732;Laerm;43666;51.442;6.778;2024-03-22T09:19:13;37.68;33.90;40.23;;
49732;Laerm;43666;51.442;6.778;2024-03-22T09:21:39;37.69;33.09;40.33;;
49732;Laerm;43666;51.442;6.778;2024-03-22T09:24:05;37.66;33.90;40.03;;
49732;Laerm;43666;51.442;6.778;2024-03-22T09:26:34;37.78;34.31;41.22;;
49732;Laerm;43666;51.442;6.778;2024-03-22T09:29:00;37.78;33.90;40.80;;
49732;Laerm;43666;51.442;6.778;2024-03-22T09:31:26;37.77;33.90;40.23;;
49732;Laerm;43666;51.442;6.778;2024-03-22T09:33:53;37.74;33.90;40.13;;
49732;Laerm;43666;51.442;6.778;2024-03-22T09:36:19;37.74;34.69;40.33;;
49732;Laerm;43666;51.442;6.778;2024-03-22T09:38:45;37.74;33.90;40.53;;
49732;Laerm;43666;51.442;6.778;2024-03-22T09:41:11;37.71;33.44;40.13;;
49732;Laerm;43666;51.442;6.778;2024-03-22T09:43:38;37.69;33.44;49.73;;
49732;Laerm;43666;51.442;6.778;2024-03-22T09:46:05;37.73;33.90;40.80;;
49732;Laerm;43666;51.442;6.778;2024-03-22T09:48:32;37.68;33.44;40.23;;
49732;Laerm;43666;51.442;6.778;2024-03-22T09:50:58;37.68;33.90;40.33;;
49732;Laerm;43666;51.442;6.778;2024-03-22T09:53:26;37.69;33.90;40.33;;
49732;Laerm;43666;51.442;6.778;2024-03-22T09:55:52;37.69;33.90;40.08;;
49732;Laerm;43666;51.442;6.778;2024-03-22T09:58:23;37.69;33.44;40.23;;
49732;Laerm;43666;51.442;6.778;2024-03-22T10:00:50;37.71;33.90;48.66;;
49732;Laerm;43666;51.442;6.778;2024-03-22T10:03:16;37.72;33.90;40.23;;
49732;Laerm;43666;51.442;6.778;2024-03-22T10:05:44;37.72;33.90;48.21;;
49732;Laerm;43666;51.442;6.778;2024-03-22T10:08:10;37.71;33.90;40.54;;
49732;Laerm;43666;51.442;6.778;2024-03-22T10:10:37;37.74;33.90;47.38;;
49732;Laerm;43666;51.442;6.778;2024-03-22T10:13:03;37.76;33.44;40.43;;
49732;Laerm;43666;51.442;6.778;2024-03-22T10:15:30;37.75;34.34;40.43;;
49732;Laerm;43666;51.442;6.778;2024-03-22T10:17:59;37.73;33.44;40.23;;
49732;Laerm;43666;51.442;6.778;2024-03-22T10:20:24;37.76;34.31;49.46;;
49732;Laerm;43666;51.442;6.778;2024-03-22T10:23:00;37.74;33.44;40.23;;
49732;Laerm;43666;51.442;6.778;2024-03-22T10:25:26;37.74;34.69;40.23;;
49732;Laerm;43666;51.442;6.778;2024-03-22T10:27:56;37.75;34.31;40.53;;
49732;Laerm;43666;51.442;6.778;2024-03-22T10:30:23;37.70;33.97;40.23;;
49732;Laerm;43666;51.442;6.778;2024-03-22T10:32:49;37.71;34.31;45.54;;
49732;Laerm;43666;51.442;6.778;2024-03-22T10:35:17;37.74;34.31;40.23;;
49732;Laerm;43666;51.442;6.778;2024-03-22T10:37:43;37.70;33.97;40.33;;
49732;Laerm;43666;51.442;6.778;2024-03-22T10:40:09;37.74;34.31;40.03;;
49732;Laerm;43666;51.442;6.778;2024-03-22T10:42:37;37.77;34.31;40.23;;
49732;Laerm;43666;51.442;6.778;2024-03-22T10:45:03;37.74;33.90;40.13;;
49732;Laerm;43666;51.442;6.778;2024-03-22T10:47:33;37.79;34.69;40.45;;
49732;Laerm;43666;51.442;6.778;2024-03-22T10:50:09;37.79;34.69;40.23;;
49732;Laerm;43666;51.442;6.778;2024-03-22T10:53:09;37.82;33.90;40.33;;
49732;Laerm;43666;51.442;6.778;2024-03-22T10:55:28;37.83;34.31;40.53;;
49732;Laerm;43666;51.442;6.778;2024-03-22T10:57:56;37.82;34.31;40.33;;
49732;Laerm;43666;51.442;6.778;2024-03-22T11:00:32;37.79;33.90;40.13;;
49732;Laerm;43666;51.442;6.778;2024-03-22T11:02:58;37.85;34.31;40.80;;
49732;Laerm;43666;51.442;6.778;2024-03-22T11:05:25;37.85;34.31;40.53;;
49732;Laerm;43666;51.442;6.778;2024-03-22T11:08:02;37.90;33.90;49.47;;
49732;Laerm;43666;51.442;6.778;2024-03-22T11:10:30;37.83;34.31;40.33;;
49732;Laerm;43666;51.442;6.778;2024-03-22T11:13:00;37.82;34.69;40.43;;
49732;Laerm;43666;51.442;6.778;2024-03-22T11:15:26;37.78;33.90;40.13;;
49732;Laerm;43666;51.442;6.778;2024-03-22T11:17:53;37.76;33.90;46.66;;
49732;Laerm;43666;51.442;6.778;2024-03-22T11:20:18;37.71;33.44;40.33;;
49732;Laerm;43666;51.442;6.778;2024-03-22T11:22:44;37.68;33.90;40.23;;
49732;Laerm;43666;51.442;6.778;2024-03-22T11:25:10;37.65;34.31;40.33;;
49732;Laerm;43666;51.442;6.778;2024-03-22T11:27:36;37.66;33.90;40.03;;
49732;Laerm;43666;51.442;6.778;2024-03-22T11:30:02;37.66;33.90;40.13;;
49732;Laerm;43666;51.442;6.778;2024-03-22T11:32:29;37.59;33.44;42.41;;
49732;Laerm;43666;51.442;6.778;2024-03-22T11:34:54;37.58;33.90;40.23;;
49732;Laerm;43666;51.442;6.778;2024-03-22T11:37:21;37.57;34.69;40.23;;
49732;Laerm;43666;51.442;6.778;2024-03-22T11:39:46;37.52;33.44;40.23;;
49732;Laerm;43666;51.442;6.778;2024-03-22T11:42:13;37.46;33.44;40.03;;
49732;Laerm;43666;51.442;6.778;2024-03-22T11:44:39;37.42;33.55;40.53;;
49732;Laerm;43666;51.442;6.778;2024-03-22T11:47:05;37.43;33.90;39.92;;
49732;Laerm;43666;51.442;6.778;2024-03-22T11:49:31;37.43;33.90;40.03;;
49732;Laerm;43666;51.442;6.778;2024-03-22T11:51:56;37.44;33.44;40.13;;
49732;Laerm;43666;51.442;6.778;2024-03-22T11:54:22;37.41;32.93;39.81;;
49732;Laerm;43666;51.442;6.778;2024-03-22T11:56:52;37.40;33.44;39.81;;
49732;Laerm;43666;51.442;6.778;2024-03-22T11:59:20;37.41;32.93;40.13;;
49732;Laerm;43666;51.442;6.778;2024-03-22T12:01:47;37.43;33.44;40.43;;
49732;Laerm;43666;51.442;6.778;2024-03-22T12:04:13;37.41;33.90;39.92;;
49732;Laerm;43666;51.442;6.778;2024-03-22T12:06:46;37.39;33.90;40.13;;
49732;Laerm;43666;51.442;6.778;2024-03-22T12:09:12;37.36;33.44;40.13;;
49732;Laerm;43666;51.442;6.778;2024-03-22T12:11:39;37.37;33.44;39.92;;
49732;Laerm;43666;51.442;6.778;2024-03-22T12:14:05;37.33;33.90;39.92;;
49732;Laerm;43666;51.442;6.778;2024-03-22T12:16:31;37.33;32.93;40.03;;
49732;Laerm;43666;51.442;6.778;2024-03-22T12:18:57;37.31;33.44;39.92;;
49732;Laerm;43666;51.442;6.778;2024-03-22T12:21:23;37.31;32.35;40.13;;
49732;Laerm;43666;51.442;6.778;2024-03-22T12:23:49;37.30;32.93;41.46;;
49732;Laerm;43666;51.442;6.778;2024-03-22T12:26:14;37.21;31.68;39.92;;
49732;Laerm;43666;51.442;6.778;2024-03-22T12:28:40;37.19;30.89;39.81;;
49732;Laerm;43666;51.442;6.778;2024-03-22T12:31:07;37.18;32.35;39.81;;
49732;Laerm;43666;51.442;6.778;2024-03-22T12:33:33;37.19;32.93;39.81;;
49732;Laerm;43666;51.442;6.778;2024-03-22T12:35:59;37.14;32.35;39.81;;
49732;Laerm;43666;51.442;6.778;2024-03-22T12:38:25;37.13;32.35;39.81;;
49732;Laerm;43666;51.442;6.778;2024-03-22T12:40:51;37.13;32.35;39.70;;
49732;Laerm;43666;51.442;6.778;2024-03-22T12:43:17;37.14;32.35;40.03;;
49732;Laerm;43666;51.442;6.778;2024-03-22T12:45:42;37.12;32.35;39.92;;
49732;Laerm;43666;51.442;6.778;2024-03-22T12:48:08;37.12;32.93;39.92;;
49732;Laerm;43666;51.442;6.778;2024-03-22T12:50:34;37.16;33.44;40.03;;
49732;Laerm;43666;51.442;6.778;2024-03-22T12:53:00;37.13;32.35;39.70;;
49732;Laerm;43666;51.442;6.778;2024-03-22T12:55:26;37.16;32.93;39.92;;
49732;Laerm;43666;51.442;6.778;2024-03-22T12:57:54;37.15;32.93;40.13;;
49732;Laerm;43666;51.442;6.778;2024-03-22T13:00:20;37.13;32.35;40.13;;
49732;Laerm;43666;51.442;6.778;2024-03-22T13:02:46;37.13;31.68;40.03;;
49732;Laerm;43666;51.442;6.778;2024-03-22T13:05:12;37.11;32.93;40.43;;
49732;Laerm;43666;51.442;6.778;2024-03-22T13:07:37;37.07;32.35;39.92;;
49732;Laerm;43666;51.442;6.778;2024-03-22T13:10:04;37.29;31.68;57.57;;
49732;Laerm;43666;51.442;6.778;2024-03-22T13:12:30;37.15;32.93;44.07;;
49732;Laerm;43666;51.442;6.778;2024-03-22T13:15:03;37.14;32.93;39.92;;
49732;Laerm;43666;51.442;6.778;2024-03-22T13:17:29;37.12;30.89;40.23;;
49732;Laerm;43666;51.442;6.778;2024-03-22T13:19:55;37.12;32.35;39.92;;
49732;Laerm;43666;51.442;6.778;2024-03-22T13:22:21;37.09;31.68;39.81;;
49732;Laerm;43666;51.442;6.778;2024-03-22T13:24:47;37.09;32.93;39.92;;
49732;Laerm;43666;51.442;6.778;2024-03-22T13:27:13;37.12;32.35;40.23;;
49732;Laerm;43666;51.442;6.778;2024-03-22T13:29:39;37.12;32.35;39.81;;
49732;Laerm;43666;51.442;6.778;2024-03-22T13:32:05;37.13;32.35;39.81;;
49732;Laerm;43666;51.442;6.778;2024-03-22T13:34:35;37.11;30.89;40.03;;
49732;Laerm;43666;51.442;6.778;2024-03-22T13:37:01;37.09;32.35;40.53;;
49732;Laerm;43666;51.442;6.778;2024-03-22T13:39:27;37.10;30.89;40.03;;